sensor_id;sensor_type;location;lat;lon;timestamp;P1;durP1;ratioP1;P2;durP2;ratioP2
64033;SDS011;50280;49.864;8.638;2022-10-16T00:01:38;9.07;;;2.25;;
64033;SDS011;50280;49.864;8.638;2022-10-16T00:04:10;3.15;;;2.10;;
64033;SDS011;50280;49.864;8.638;2022-10-16T00:06:45;4.55;;;2.50;;
64033;SDS011;50280;49.864;8.638;2022-10-16T00:09:18;6.72;;;2.30;;
64033;SDS011;50280;49.864;8.638;2022-10-16T00:11:51;3.70;;;2.10;;
64033;SDS011;50280;49.864;8.638;2022-10-16T00:14:23;4.40;;;2.10;;
64033;SDS011;50280;49.864;8.638;2022-10-16T00:16:55;3.63;;;2.00;;
64033;SDS011;50280;49.864;8.638;2022-10-16T00:19:28;3.72;;;1.92;;
64033;SDS011;50280;49.864;8.638;2022-10-16T00:22:01;5.00;;;2.08;;
64033;SDS011;50280;49.864;8.638;2022-10-16T00:24:34;5.07;;;2.00;;
64033;SDS011;50280;49.864;8.638;2022-10-16T00:27:06;3.63;;;1.92;;
64033;SDS011;50280;49.864;8.638;2022-10-16T00:29:38;3.88;;;1.90;;
64033;SDS011;50280;49.864;8.638;2022-10-16T00:32:11;5.60;;;1.80;;
64033;SDS011;50280;49.864;8.638;2022-10-16T00:34:43;2.70;;;1.58;;
64033;SDS011;50280;49.864;8.638;2022-10-16T00:37:17;2.80;;;1.45;;
64033;SDS011;50280;49.864;8.638;2022-10-16T00:39:49;2.67;;;1.70;;
64033;SDS011;50280;49.864;8.638;2022-10-16T00:42:22;3.53;;;1.63;;
64033;SDS011;50280;49.864;8.638;2022-10-16T00:44:55;3.00;;;1.60;;
64033;SDS011;50280;49.864;8.638;2022-10-16T00:47:30;3.03;;;1.60;;
64033;SDS011;50280;49.864;8.638;2022-10-16T00:50:11;2.40;;;1.27;;
64033;SDS011;50280;49.864;8.638;2022-10-16T00:52:54;2.50;;;1.10;;
64033;SDS011;50280;49.864;8.638;2022-10-16T00:55:30;2.83;;;0.88;;
64033;SDS011;50280;49.864;8.638;2022-10-16T00:58:02;4.38;;;1.10;;
64033;SDS011;50280;49.864;8.638;2022-10-16T01:00:35;1.40;;;0.90;;
64033;SDS011;50280;49.864;8.638;2022-10-16T01:03:22;2.67;;;0.90;;
64033;SDS011;50280;49.864;8.638;2022-10-16T01:06:02;2.85;;;0.70;;
64033;SDS011;50280;49.864;8.638;2022-10-16T01:08:58;2.55;;;1.02;;
64033;SDS011;50280;49.864;8.638;2022-10-16T01:11:49;1.85;;;0.70;;
64033;SDS011;50280;49.864;8.638;2022-10-16T01:14:40;2.10;;;0.95;;
64033;SDS011;50280;49.864;8.638;2022-10-16T01:17:26;1.75;;;0.70;;
64033;SDS011;50280;49.864;8.638;2022-10-16T01:20:13;1.73;;;0.70;;
64033;SDS011;50280;49.864;8.638;2022-10-16T01:23:05;1.20;;;0.70;;
64033;SDS011;50280;49.864;8.638;2022-10-16T01:26:03;4.22;;;0.85;;
64033;SDS011;50280;49.864;8.638;2022-10-16T01:29:09;1.20;;;0.70;;
64033;SDS011;50280;49.864;8.638;2022-10-16T01:31:53;3.13;;;0.70;;
64033;SDS011;50280;49.864;8.638;2022-10-16T01:34:37;1.20;;;0.70;;
64033;SDS011;50280;49.864;8.638;2022-10-16T01:37:21;3.38;;;0.80;;
64033;SDS011;50280;49.864;8.638;2022-10-16T01:40:08;2.92;;;0.98;;
64033;SDS011;50280;49.864;8.638;2022-10-16T01:42:46;1.23;;;0.82;;
64033;SDS011;50280;49.864;8.638;2022-10-16T01:45:31;2.75;;;0.82;;
64033;SDS011;50280;49.864;8.638;2022-10-16T01:48:06;1.63;;;0.93;;
64033;SDS011;50280;49.864;8.638;2022-10-16T01:50:48;1.92;;;0.90;;
64033;SDS011;50280;49.864;8.638;2022-10-16T01:53:31;1.85;;;0.80;;
64033;SDS011;50280;49.864;8.638;2022-10-16T01:56:06;1.70;;;1.10;;
64033;SDS011;50280;49.864;8.638;2022-10-16T01:58:46;4.80;;;1.10;;
64033;SDS011;50280;49.864;8.638;2022-10-16T02:01:30;1.95;;;1.08;;
64033;SDS011;50280;49.864;8.638;2022-10-16T02:04:09;2.67;;;1.30;;
64033;SDS011;50280;49.864;8.638;2022-10-16T02:06:50;2.00;;;1.25;;
64033;SDS011;50280;49.864;8.638;2022-10-16T02:09:24;3.83;;;1.50;;
64033;SDS011;50280;49.864;8.638;2022-10-16T02:11:58;2.70;;;1.50;;
64033;SDS011;50280;49.864;8.638;2022-10-16T02:14:39;4.88;;;2.00;;
64033;SDS011;50280;49.864;8.638;2022-10-16T02:17:15;5.38;;;1.55;;
64033;SDS011;50280;49.864;8.638;2022-10-16T02:19:50;3.17;;;1.80;;
64033;SDS011;50280;49.864;8.638;2022-10-16T02:22:29;7.35;;;1.90;;
64033;SDS011;50280;49.864;8.638;2022-10-16T02:25:08;3.75;;;2.00;;
64033;SDS011;50280;49.864;8.638;2022-10-16T02:27:52;2.83;;;1.65;;
64033;SDS011;50280;49.864;8.638;2022-10-16T02:30:33;3.90;;;2.25;;
64033;SDS011;50280;49.864;8.638;2022-10-16T02:33:15;3.78;;;2.10;;
64033;SDS011;50280;49.864;8.638;2022-10-16T02:35:53;4.80;;;2.13;;
64033;SDS011;50280;49.864;8.638;2022-10-16T02:38:28;4.07;;;2.28;;
64033;SDS011;50280;49.864;8.638;2022-10-16T02:41:03;3.65;;;2.30;;
64033;SDS011;50280;49.864;8.638;2022-10-16T02:43:37;4.35;;;2.50;;
64033;SDS011;50280;49.864;8.638;2022-10-16T02:46:09;4.88;;;2.28;;
64033;SDS011;50280;49.864;8.638;2022-10-16T02:48:43;6.40;;;2.58;;
64033;SDS011;50280;49.864;8.638;2022-10-16T02:51:15;7.13;;;2.83;;
64033;SDS011;50280;49.864;8.638;2022-10-16T02:53:48;4.68;;;2.90;;
64033;SDS011;50280;49.864;8.638;2022-10-16T02:56:20;5.22;;;2.65;;
64033;SDS011;50280;49.864;8.638;2022-10-16T02:58:53;4.45;;;2.90;;
64033;SDS011;50280;49.864;8.638;2022-10-16T03:01:25;9.00;;;3.30;;
64033;SDS011;50280;49.864;8.638;2022-10-16T03:03:59;7.28;;;3.00;;
64033;SDS011;50280;49.864;8.638;2022-10-16T03:06:31;7.63;;;3.42;;
64033;SDS011;50280;49.864;8.638;2022-10-16T03:09:04;6.40;;;3.25;;
64033;SDS011;50280;49.864;8.638;2022-10-16T03:11:36;5.18;;;3.33;;
64033;SDS011;50280;49.864;8.638;2022-10-16T03:14:08;5.93;;;3.10;;
64033;SDS011;50280;49.864;8.638;2022-10-16T03:16:41;4.82;;;2.67;;
64033;SDS011;50280;49.864;8.638;2022-10-16T03:19:15;6.55;;;3.15;;
64033;SDS011;50280;49.864;8.638;2022-10-16T03:21:48;6.03;;;3.47;;
64033;SDS011;50280;49.864;8.638;2022-10-16T03:24:21;8.25;;;3.10;;
64033;SDS011;50280;49.864;8.638;2022-10-16T03:26:53;7.05;;;3.45;;
64033;SDS011;50280;49.864;8.638;2022-10-16T03:29:25;8.55;;;3.80;;
64033;SDS011;50280;49.864;8.638;2022-10-16T03:31:58;7.47;;;4.30;;
64033;SDS011;50280;49.864;8.638;2022-10-16T03:34:32;6.75;;;3.88;;
64033;SDS011;50280;49.864;8.638;2022-10-16T03:37:05;5.80;;;3.75;;
64033;SDS011;50280;49.864;8.638;2022-10-16T03:39:37;7.22;;;3.85;;
64033;SDS011;50280;49.864;8.638;2022-10-16T03:42:10;6.47;;;3.70;;
64033;SDS011;50280;49.864;8.638;2022-10-16T03:44:42;5.40;;;3.80;;
64033;SDS011;50280;49.864;8.638;2022-10-16T03:47:14;4.85;;;3.63;;
64033;SDS011;50280;49.864;8.638;2022-10-16T03:49:48;7.45;;;3.92;;
64033;SDS011;50280;49.864;8.638;2022-10-16T03:52:21;5.78;;;3.90;;
64033;SDS011;50280;49.864;8.638;2022-10-16T03:54:54;6.38;;;3.88;;
64033;SDS011;50280;49.864;8.638;2022-10-16T03:57:26;7.05;;;3.70;;
64033;SDS011;50280;49.864;8.638;2022-10-16T03:59:58;7.07;;;3.90;;
64033;SDS011;50280;49.864;8.638;2022-10-16T04:02:31;8.23;;;4.03;;
64033;SDS011;50280;49.864;8.638;2022-10-16T04:05:05;9.13;;;4.18;;
64033;SDS011;50280;49.864;8.638;2022-10-16T04:07:38;5.68;;;3.72;;
64033;SDS011;50280;49.864;8.638;2022-10-16T04:10:11;7.70;;;3.80;;
64033;SDS011;50280;49.864;8.638;2022-10-16T04:12:43;8.68;;;3.50;;
64033;SDS011;50280;49.864;8.638;2022-10-16T04:15:15;6.80;;;3.67;;
64033;SDS011;50280;49.864;8.638;2022-10-16T04:17:48;5.20;;;3.90;;
64033;SDS011;50280;49.864;8.638;2022-10-16T04:20:23;9.40;;;4.18;;
64033;SDS011;50280;49.864;8.638;2022-10-16T04:22:56;9.05;;;3.78;;
64033;SDS011;50280;49.864;8.638;2022-10-16T04:25:28;7.10;;;3.95;;
64033;SDS011;50280;49.864;8.638;2022-10-16T04:28:00;6.50;;;3.85;;
64033;SDS011;50280;49.864;8.638;2022-10-16T04:30:33;8.75;;;4.00;;
64033;SDS011;50280;49.864;8.638;2022-10-16T04:33:05;7.95;;;4.15;;
64033;SDS011;50280;49.864;8.638;2022-10-16T04:35:41;8.60;;;3.53;;
64033;SDS011;50280;49.864;8.638;2022-10-16T04:38:13;6.82;;;3.80;;
64033;SDS011;50280;49.864;8.638;2022-10-16T04:40:46;8.95;;;4.05;;
64033;SDS011;50280;49.864;8.638;2022-10-16T04:43:18;9.50;;;4.20;;
64033;SDS011;50280;49.864;8.638;2022-10-16T04:45:51;6.30;;;4.20;;
64033;SDS011;50280;49.864;8.638;2022-10-16T04:48:24;7.25;;;4.45;;
64033;SDS011;50280;49.864;8.638;2022-10-16T04:50:58;8.85;;;4.10;;
64033;SDS011;50280;49.864;8.638;2022-10-16T04:53:31;7.22;;;3.88;;
64033;SDS011;50280;49.864;8.638;2022-10-16T04:56:03;6.20;;;3.95;;
64033;SDS011;50280;49.864;8.638;2022-10-16T04:58:37;7.68;;;4.18;;
64033;SDS011;50280;49.864;8.638;2022-10-16T05:01:09;7.88;;;4.05;;
64033;SDS011;50280;49.864;8.638;2022-10-16T05:03:41;4.32;;;3.30;;
64033;SDS011;50280;49.864;8.638;2022-10-16T05:06:16;7.05;;;4.07;;
64033;SDS011;50280;49.864;8.638;2022-10-16T05:08:48;6.55;;;3.80;;
64033;SDS011;50280;49.864;8.638;2022-10-16T05:11:20;5.43;;;3.50;;
64033;SDS011;50280;49.864;8.638;2022-10-16T05:13:53;7.72;;;3.75;;
64033;SDS011;50280;49.864;8.638;2022-10-16T05:16:25;6.10;;;3.42;;
64033;SDS011;50280;49.864;8.638;2022-10-16T05:18:58;6.95;;;3.40;;
64033;SDS011;50280;49.864;8.638;2022-10-16T05:21:31;6.90;;;3.45;;
64033;SDS011;50280;49.864;8.638;2022-10-16T05:24:04;5.82;;;3.92;;
64033;SDS011;50280;49.864;8.638;2022-10-16T05:26:36;11.13;;;4.15;;
64033;SDS011;50280;49.864;8.638;2022-10-16T05:29:08;10.23;;;3.97;;
64033;SDS011;50280;49.864;8.638;2022-10-16T05:31:41;6.68;;;3.53;;
64033;SDS011;50280;49.864;8.638;2022-10-16T05:34:13;5.68;;;3.22;;
64033;SDS011;50280;49.864;8.638;2022-10-16T05:36:47;6.38;;;3.30;;
64033;SDS011;50280;49.864;8.638;2022-10-16T05:39:19;4.50;;;3.13;;
64033;SDS011;50280;49.864;8.638;2022-10-16T05:41:52;5.95;;;3.15;;
64033;SDS011;50280;49.864;8.638;2022-10-16T05:44:24;6.22;;;2.92;;
64033;SDS011;50280;49.864;8.638;2022-10-16T05:46:57;4.45;;;2.72;;
64033;SDS011;50280;49.864;8.638;2022-10-16T05:49:29;3.60;;;2.90;;
64033;SDS011;50280;49.864;8.638;2022-10-16T05:52:03;6.47;;;2.97;;
64033;SDS011;50280;49.864;8.638;2022-10-16T05:54:36;5.28;;;3.33;;
64033;SDS011;50280;49.864;8.638;2022-10-16T05:57:08;5.57;;;3.30;;
64033;SDS011;50280;49.864;8.638;2022-10-16T05:59:40;7.65;;;2.92;;
64033;SDS011;50280;49.864;8.638;2022-10-16T06:02:13;5.40;;;3.30;;
64033;SDS011;50280;49.864;8.638;2022-10-16T06:04:48;10.80;;;3.33;;
64033;SDS011;50280;49.864;8.638;2022-10-16T06:07:21;6.07;;;3.25;;
64033;SDS011;50280;49.864;8.638;2022-10-16T06:09:55;5.10;;;3.03;;
64033;SDS011;50280;49.864;8.638;2022-10-16T06:12:27;5.55;;;3.15;;
64033;SDS011;50280;49.864;8.638;2022-10-16T06:14:59;5.10;;;2.88;;
64033;SDS011;50280;49.864;8.638;2022-10-16T06:17:32;5.88;;;2.72;;
64033;SDS011;50280;49.864;8.638;2022-10-16T06:20:04;5.13;;;2.90;;
64033;SDS011;50280;49.864;8.638;2022-10-16T06:22:39;6.45;;;2.47;;
64033;SDS011;50280;49.864;8.638;2022-10-16T06:25:11;7.53;;;2.90;;
64033;SDS011;50280;49.864;8.638;2022-10-16T06:27:44;5.28;;;2.70;;
64033;SDS011;50280;49.864;8.638;2022-10-16T06:30:16;5.63;;;2.80;;
64033;SDS011;50280;49.864;8.638;2022-10-16T06:32:48;3.97;;;2.42;;
64033;SDS011;50280;49.864;8.638;2022-10-16T06:35:21;4.03;;;2.38;;
64033;SDS011;50280;49.864;8.638;2022-10-16T06:37:55;4.68;;;2.40;;
64033;SDS011;50280;49.864;8.638;2022-10-16T06:40:27;3.90;;;2.50;;
64033;SDS011;50280;49.864;8.638;2022-10-16T06:42:59;4.97;;;2.67;;
64033;SDS011;50280;49.864;8.638;2022-10-16T06:45:32;5.07;;;2.58;;
64033;SDS011;50280;49.864;8.638;2022-10-16T06:48:04;3.65;;;2.10;;
64033;SDS011;50280;49.864;8.638;2022-10-16T06:50:37;3.85;;;2.22;;
64033;SDS011;50280;49.864;8.638;2022-10-16T06:53:10;6.25;;;2.50;;
64033;SDS011;50280;49.864;8.638;2022-10-16T06:55:43;6.10;;;2.33;;
64033;SDS011;50280;49.864;8.638;2022-10-16T06:58:15;5.70;;;2.20;;
64033;SDS011;50280;49.864;8.638;2022-10-16T07:00:48;3.35;;;2.25;;
64033;SDS011;50280;49.864;8.638;2022-10-16T07:03:27;5.40;;;2.42;;
64033;SDS011;50280;49.864;8.638;2022-10-16T07:06:02;3.70;;;2.15;;
64033;SDS011;50280;49.864;8.638;2022-10-16T07:08:39;3.40;;;2.30;;
64033;SDS011;50280;49.864;8.638;2022-10-16T07:11:15;5.70;;;2.30;;
64033;SDS011;50280;49.864;8.638;2022-10-16T07:13:51;4.60;;;2.17;;
64033;SDS011;50280;49.864;8.638;2022-10-16T07:16:25;4.50;;;2.10;;
64033;SDS011;50280;49.864;8.638;2022-10-16T07:19:01;5.10;;;1.92;;
64033;SDS011;50280;49.864;8.638;2022-10-16T07:21:34;3.40;;;2.05;;
64033;SDS011;50280;49.864;8.638;2022-10-16T07:24:11;5.97;;;2.20;;
64033;SDS011;50280;49.864;8.638;2022-10-16T07:26:46;4.53;;;2.63;;
64033;SDS011;50280;49.864;8.638;2022-10-16T07:29:19;5.78;;;2.28;;
64033;SDS011;50280;49.864;8.638;2022-10-16T07:31:53;3.42;;;2.30;;
64033;SDS011;50280;49.864;8.638;2022-10-16T07:34:25;4.65;;;2.38;;
64033;SDS011;50280;49.864;8.638;2022-10-16T07:36:58;5.57;;;2.28;;
64033;SDS011;50280;49.864;8.638;2022-10-16T07:39:31;5.72;;;2.53;;
64033;SDS011;50280;49.864;8.638;2022-10-16T07:42:04;5.18;;;2.47;;
64033;SDS011;50280;49.864;8.638;2022-10-16T07:44:36;5.53;;;2.53;;
64033;SDS011;50280;49.864;8.638;2022-10-16T07:47:08;7.43;;;2.70;;
64033;SDS011;50280;49.864;8.638;2022-10-16T07:49:41;6.22;;;2.50;;
64033;SDS011;50280;49.864;8.638;2022-10-16T07:52:13;5.72;;;2.70;;
64033;SDS011;50280;49.864;8.638;2022-10-16T07:54:47;3.95;;;2.72;;
64033;SDS011;50280;49.864;8.638;2022-10-16T07:57:19;4.97;;;2.35;;
64033;SDS011;50280;49.864;8.638;2022-10-16T07:59:52;3.50;;;2.50;;
64033;SDS011;50280;49.864;8.638;2022-10-16T08:02:24;5.28;;;2.35;;
64033;SDS011;50280;49.864;8.638;2022-10-16T08:04:56;5.07;;;2.38;;
64033;SDS011;50280;49.864;8.638;2022-10-16T08:07:29;5.25;;;2.13;;
64033;SDS011;50280;49.864;8.638;2022-10-16T08:10:03;5.50;;;2.47;;
64033;SDS011;50280;49.864;8.638;2022-10-16T08:12:37;5.50;;;2.50;;
64033;SDS011;50280;49.864;8.638;2022-10-16T08:15:09;4.82;;;2.20;;
64033;SDS011;50280;49.864;8.638;2022-10-16T08:17:42;4.40;;;2.30;;
64033;SDS011;50280;49.864;8.638;2022-10-16T08:20:15;4.50;;;2.20;;
64033;SDS011;50280;49.864;8.638;2022-10-16T08:22:47;5.50;;;2.15;;
64033;SDS011;50280;49.864;8.638;2022-10-16T08:25:21;6.38;;;2.08;;
64033;SDS011;50280;49.864;8.638;2022-10-16T08:27:56;3.15;;;2.25;;
64033;SDS011;50280;49.864;8.638;2022-10-16T08:30:28;5.03;;;1.98;;
64033;SDS011;50280;49.864;8.638;2022-10-16T08:33:01;5.40;;;2.38;;
64033;SDS011;50280;49.864;8.638;2022-10-16T08:35:34;5.45;;;2.55;;
64033;SDS011;50280;49.864;8.638;2022-10-16T08:38:07;4.80;;;2.47;;
64033;SDS011;50280;49.864;8.638;2022-10-16T08:40:41;8.00;;;2.60;;
64033;SDS011;50280;49.864;8.638;2022-10-16T08:43:30;6.50;;;2.75;;
64033;SDS011;50280;49.864;8.638;2022-10-16T08:46:46;6.45;;;2.70;;
64033;SDS011;50280;49.864;8.638;2022-10-16T08:49:41;6.53;;;2.90;;
64033;SDS011;50280;49.864;8.638;2022-10-16T08:52:28;4.68;;;2.70;;
64033;SDS011;50280;49.864;8.638;2022-10-16T08:55:08;6.65;;;2.85;;
64033;SDS011;50280;49.864;8.638;2022-10-16T08:58:07;6.63;;;2.55;;
64033;SDS011;50280;49.864;8.638;2022-10-16T09:00:46;4.53;;;2.90;;
64033;SDS011;50280;49.864;8.638;2022-10-16T09:03:28;5.45;;;2.97;;
64033;SDS011;50280;49.864;8.638;2022-10-16T09:06:29;5.50;;;2.92;;
64033;SDS011;50280;49.864;8.638;2022-10-16T09:09:31;5.22;;;2.95;;
64033;SDS011;50280;49.864;8.638;2022-10-16T09:12:31;5.38;;;3.05;;
64033;SDS011;50280;49.864;8.638;2022-10-16T09:15:21;6.60;;;3.03;;
64033;SDS011;50280;49.864;8.638;2022-10-16T09:18:09;5.50;;;3.10;;
64033;SDS011;50280;49.864;8.638;2022-10-16T09:20:57;6.93;;;3.30;;
64033;SDS011;50280;49.864;8.638;2022-10-16T09:23:42;5.43;;;3.00;;
64033;SDS011;50280;49.864;8.638;2022-10-16T09:26:16;6.50;;;3.03;;
64033;SDS011;50280;49.864;8.638;2022-10-16T09:28:51;6.13;;;2.80;;
64033;SDS011;50280;49.864;8.638;2022-10-16T09:31:25;5.65;;;3.08;;
64033;SDS011;50280;49.864;8.638;2022-10-16T09:33:59;5.25;;;2.80;;
64033;SDS011;50280;49.864;8.638;2022-10-16T09:36:39;9.33;;;3.27;;
64033;SDS011;50280;49.864;8.638;2022-10-16T09:39:17;5.40;;;3.40;;
64033;SDS011;50280;49.864;8.638;2022-10-16T09:41:50;7.07;;;3.30;;
64033;SDS011;50280;49.864;8.638;2022-10-16T09:44:24;7.22;;;3.53;;
64033;SDS011;50280;49.864;8.638;2022-10-16T09:47:04;6.20;;;3.00;;
64033;SDS011;50280;49.864;8.638;2022-10-16T09:49:53;6.53;;;3.58;;
64033;SDS011;50280;49.864;8.638;2022-10-16T09:52:29;5.88;;;3.22;;
64033;SDS011;50280;49.864;8.638;2022-10-16T09:55:08;4.38;;;2.80;;
64033;SDS011;50280;49.864;8.638;2022-10-16T09:57:48;5.03;;;2.70;;
64033;SDS011;50280;49.864;8.638;2022-10-16T10:00:21;5.55;;;2.80;;
64033;SDS011;50280;49.864;8.638;2022-10-16T10:02:57;5.72;;;2.45;;
64033;SDS011;50280;49.864;8.638;2022-10-16T10:05:30;7.10;;;2.50;;
64033;SDS011;50280;49.864;8.638;2022-10-16T10:08:03;4.25;;;2.03;;
64033;SDS011;50280;49.864;8.638;2022-10-16T10:10:37;3.90;;;2.43;;
64033;SDS011;50280;49.864;8.638;2022-10-16T10:13:17;6.38;;;2.60;;
64033;SDS011;50280;49.864;8.638;2022-10-16T10:15:54;5.25;;;2.45;;
64033;SDS011;50280;49.864;8.638;2022-10-16T10:18:28;4.25;;;2.28;;
64033;SDS011;50280;49.864;8.638;2022-10-16T10:21:00;5.47;;;2.47;;
64033;SDS011;50280;49.864;8.638;2022-10-16T10:23:35;3.58;;;2.17;;
64033;SDS011;50280;49.864;8.638;2022-10-16T10:26:08;4.45;;;2.30;;
64033;SDS011;50280;49.864;8.638;2022-10-16T10:28:54;4.72;;;2.00;;
64033;SDS011;50280;49.864;8.638;2022-10-16T10:31:42;3.23;;;1.93;;
64033;SDS011;50280;49.864;8.638;2022-10-16T10:34:41;3.53;;;1.95;;
64033;SDS011;50280;49.864;8.638;2022-10-16T10:37:42;5.68;;;1.90;;
64033;SDS011;50280;49.864;8.638;2022-10-16T10:40:45;3.60;;;2.05;;
64033;SDS011;50280;49.864;8.638;2022-10-16T10:43:39;4.57;;;2.03;;
64033;SDS011;50280;49.864;8.638;2022-10-16T10:46:34;3.28;;;1.90;;
64033;SDS011;50280;49.864;8.638;2022-10-16T10:49:22;3.60;;;1.90;;
64033;SDS011;50280;49.864;8.638;2022-10-16T10:52:34;5.10;;;2.20;;
64033;SDS011;50280;49.864;8.638;2022-10-16T10:55:29;3.57;;;1.70;;
64033;SDS011;50280;49.864;8.638;2022-10-16T10:58:19;3.17;;;1.88;;
64033;SDS011;50280;49.864;8.638;2022-10-16T11:01:30;3.25;;;1.75;;
64033;SDS011;50280;49.864;8.638;2022-10-16T11:04:32;3.50;;;1.85;;
64033;SDS011;50280;49.864;8.638;2022-10-16T11:07:47;5.78;;;2.00;;
64033;SDS011;50280;49.864;8.638;2022-10-16T11:10:30;4.88;;;2.33;;
64033;SDS011;50280;49.864;8.638;2022-10-16T11:13:21;2.90;;;2.00;;
64033;SDS011;50280;49.864;8.638;2022-10-16T11:16:11;3.90;;;2.20;;
64033;SDS011;50280;49.864;8.638;2022-10-16T11:18:55;4.60;;;2.10;;
64033;SDS011;50280;49.864;8.638;2022-10-16T11:21:43;4.50;;;2.15;;
64033;SDS011;50280;49.864;8.638;2022-10-16T11:24:34;4.20;;;2.28;;
64033;SDS011;50280;49.864;8.638;2022-10-16T11:27:20;5.75;;;2.63;;
64033;SDS011;50280;49.864;8.638;2022-10-16T11:30:12;6.15;;;2.47;;
64033;SDS011;50280;49.864;8.638;2022-10-16T11:33:00;3.85;;;2.10;;
64033;SDS011;50280;49.864;8.638;2022-10-16T11:35:57;6.63;;;2.00;;
64033;SDS011;50280;49.864;8.638;2022-10-16T11:38:47;4.25;;;2.15;;
64033;SDS011;50280;49.864;8.638;2022-10-16T11:41:32;4.03;;;2.00;;
64033;SDS011;50280;49.864;8.638;2022-10-16T11:44:16;3.78;;;1.90;;
64033;SDS011;50280;49.864;8.638;2022-10-16T11:47:21;3.47;;;1.90;;
64033;SDS011;50280;49.864;8.638;2022-10-16T11:50:09;2.83;;;1.90;;
64033;SDS011;50280;49.864;8.638;2022-10-16T11:52:58;5.95;;;2.10;;
64033;SDS011;50280;49.864;8.638;2022-10-16T11:55:49;2.92;;;2.00;;
64033;SDS011;50280;49.864;8.638;2022-10-16T11:58:22;3.53;;;1.90;;
64033;SDS011;50280;49.864;8.638;2022-10-16T12:01:11;3.85;;;1.92;;
64033;SDS011;50280;49.864;8.638;2022-10-16T12:04:02;3.97;;;2.00;;
64033;SDS011;50280;49.864;8.638;2022-10-16T12:06:57;2.92;;;2.10;;
64033;SDS011;50280;49.864;8.638;2022-10-16T12:09:40;3.53;;;2.38;;
64033;SDS011;50280;49.864;8.638;2022-10-16T12:12:25;3.80;;;1.88;;
64033;SDS011;50280;49.864;8.638;2022-10-16T12:15:18;3.33;;;2.17;;
64033;SDS011;50280;49.864;8.638;2022-10-16T12:17:56;2.40;;;1.67;;
64033;SDS011;50280;49.864;8.638;2022-10-16T12:20:29;3.17;;;1.95;;
64033;SDS011;50280;49.864;8.638;2022-10-16T12:23:05;3.85;;;2.00;;
64033;SDS011;50280;49.864;8.638;2022-10-16T12:25:53;3.55;;;2.17;;
64033;SDS011;50280;49.864;8.638;2022-10-16T12:28:31;2.88;;;1.80;;
64033;SDS011;50280;49.864;8.638;2022-10-16T12:31:06;3.67;;;2.00;;
64033;SDS011;50280;49.864;8.638;2022-10-16T12:33:41;4.45;;;2.05;;
64033;SDS011;50280;49.864;8.638;2022-10-16T12:36:30;2.75;;;2.08;;
64033;SDS011;50280;49.864;8.638;2022-10-16T12:39:16;3.97;;;2.22;;
64033;SDS011;50280;49.864;8.638;2022-10-16T12:42:01;3.30;;;2.13;;
64033;SDS011;50280;49.864;8.638;2022-10-16T12:44:38;4.25;;;2.08;;
64033;SDS011;50280;49.864;8.638;2022-10-16T12:47:18;4.10;;;2.10;;
64033;SDS011;50280;49.864;8.638;2022-10-16T12:49:55;4.57;;;2.38;;
64033;SDS011;50280;49.864;8.638;2022-10-16T12:52:29;3.30;;;1.90;;
64033;SDS011;50280;49.864;8.638;2022-10-16T12:55:12;3.13;;;2.13;;
64033;SDS011;50280;49.864;8.638;2022-10-16T12:58:00;3.50;;;1.90;;
64033;SDS011;50280;49.864;8.638;2022-10-16T13:00:56;4.05;;;2.10;;
64033;SDS011;50280;49.864;8.638;2022-10-16T13:03:53;2.92;;;2.05;;
64033;SDS011;50280;49.864;8.638;2022-10-16T13:06:53;5.32;;;2.20;;
64033;SDS011;50280;49.864;8.638;2022-10-16T13:09:50;4.50;;;2.33;;
64033;SDS011;50280;49.864;8.638;2022-10-16T13:12:45;4.53;;;2.50;;
64033;SDS011;50280;49.864;8.638;2022-10-16T13:15:51;5.97;;;2.40;;
64033;SDS011;50280;49.864;8.638;2022-10-16T13:18:53;3.60;;;2.55;;
64033;SDS011;50280;49.864;8.638;2022-10-16T13:21:49;4.03;;;2.23;;
64033;SDS011;50280;49.864;8.638;2022-10-16T13:24:40;3.88;;;2.50;;
64033;SDS011;50280;49.864;8.638;2022-10-16T13:27:39;5.32;;;2.40;;
64033;SDS011;50280;49.864;8.638;2022-10-16T13:30:26;4.15;;;2.10;;
64033;SDS011;50280;49.864;8.638;2022-10-16T13:33:04;3.95;;;2.42;;
64033;SDS011;50280;49.864;8.638;2022-10-16T13:35:47;5.47;;;2.50;;
64033;SDS011;50280;49.864;8.638;2022-10-16T13:38:24;3.75;;;2.42;;
64033;SDS011;50280;49.864;8.638;2022-10-16T13:41:00;5.53;;;2.42;;
64033;SDS011;50280;49.864;8.638;2022-10-16T13:43:37;2.85;;;2.30;;
64033;SDS011;50280;49.864;8.638;2022-10-16T13:46:15;4.40;;;2.60;;
64033;SDS011;50280;49.864;8.638;2022-10-16T13:48:59;3.92;;;2.60;;
64033;SDS011;50280;49.864;8.638;2022-10-16T13:51:35;4.10;;;2.95;;
64033;SDS011;50280;49.864;8.638;2022-10-16T13:54:08;3.75;;;2.55;;
64033;SDS011;50280;49.864;8.638;2022-10-16T13:56:42;5.18;;;2.63;;
64033;SDS011;50280;49.864;8.638;2022-10-16T13:59:22;5.05;;;2.58;;
64033;SDS011;50280;49.864;8.638;2022-10-16T14:01:58;3.75;;;2.60;;
64033;SDS011;50280;49.864;8.638;2022-10-16T14:04:39;4.88;;;2.42;;
64033;SDS011;50280;49.864;8.638;2022-10-16T14:07:13;4.43;;;2.45;;
64033;SDS011;50280;49.864;8.638;2022-10-16T14:09:56;3.88;;;2.70;;
64033;SDS011;50280;49.864;8.638;2022-10-16T14:12:37;3.63;;;2.50;;
64033;SDS011;50280;49.864;8.638;2022-10-16T14:15:15;3.00;;;2.47;;
64033;SDS011;50280;49.864;8.638;2022-10-16T14:17:51;5.07;;;2.47;;
64033;SDS011;50280;49.864;8.638;2022-10-16T14:20:28;5.10;;;2.70;;
64033;SDS011;50280;49.864;8.638;2022-10-16T14:23:16;4.32;;;2.80;;
64033;SDS011;50280;49.864;8.638;2022-10-16T14:26:04;4.43;;;2.70;;
64033;SDS011;50280;49.864;8.638;2022-10-16T14:28:46;4.57;;;2.65;;
64033;SDS011;50280;49.864;8.638;2022-10-16T14:31:32;3.10;;;2.47;;
64033;SDS011;50280;49.864;8.638;2022-10-16T14:37:00;6.85;;;2.83;;
64033;SDS011;50280;49.864;8.638;2022-10-16T14:39:48;3.83;;;2.53;;
64033;SDS011;50280;49.864;8.638;2022-10-16T14:42:22;5.53;;;2.60;;
64033;SDS011;50280;49.864;8.638;2022-10-16T14:44:57;5.43;;;2.90;;
64033;SDS011;50280;49.864;8.638;2022-10-16T14:47:29;4.18;;;2.50;;
64033;SDS011;50280;49.864;8.638;2022-10-16T14:50:04;5.60;;;2.50;;
64033;SDS011;50280;49.864;8.638;2022-10-16T14:52:41;4.80;;;2.38;;
64033;SDS011;50280;49.864;8.638;2022-10-16T14:55:14;5.07;;;2.60;;
64033;SDS011;50280;49.864;8.638;2022-10-16T14:57:48;4.72;;;2.67;;
64033;SDS011;50280;49.864;8.638;2022-10-16T15:00:22;5.85;;;2.70;;
64033;SDS011;50280;49.864;8.638;2022-10-16T15:02:56;4.68;;;2.78;;
64033;SDS011;50280;49.864;8.638;2022-10-16T15:05:28;4.72;;;2.72;;
64033;SDS011;50280;49.864;8.638;2022-10-16T15:08:02;3.72;;;2.40;;
64033;SDS011;50280;49.864;8.638;2022-10-16T15:10:37;5.55;;;2.53;;
64033;SDS011;50280;49.864;8.638;2022-10-16T15:13:14;5.07;;;2.50;;
64033;SDS011;50280;49.864;8.638;2022-10-16T15:15:47;3.92;;;2.60;;
64033;SDS011;50280;49.864;8.638;2022-10-16T15:18:19;9.93;;;3.00;;
64033;SDS011;50280;49.864;8.638;2022-10-16T15:20:51;4.82;;;2.80;;
64033;SDS011;50280;49.864;8.638;2022-10-16T15:23:25;6.40;;;2.83;;
64033;SDS011;50280;49.864;8.638;2022-10-16T15:25:58;5.63;;;4.35;;
64033;SDS011;50280;49.864;8.638;2022-10-16T15:28:31;7.28;;;3.13;;
64033;SDS011;50280;49.864;8.638;2022-10-16T15:31:03;7.45;;;5.80;;
64033;SDS011;50280;49.864;8.638;2022-10-16T15:33:36;5.18;;;3.30;;
64033;SDS011;50280;49.864;8.638;2022-10-16T15:36:09;11.93;;;9.27;;
64033;SDS011;50280;49.864;8.638;2022-10-16T15:38:43;10.60;;;7.63;;
64033;SDS011;50280;49.864;8.638;2022-10-16T15:41:15;7.82;;;4.38;;
64033;SDS011;50280;49.864;8.638;2022-10-16T15:43:48;4.68;;;3.15;;
64033;SDS011;50280;49.864;8.638;2022-10-16T15:46:22;6.57;;;3.92;;
64033;SDS011;50280;49.864;8.638;2022-10-16T15:48:56;7.97;;;5.80;;
64033;SDS011;50280;49.864;8.638;2022-10-16T15:51:30;7.50;;;5.20;;
64033;SDS011;50280;49.864;8.638;2022-10-16T15:54:04;6.60;;;3.88;;
64033;SDS011;50280;49.864;8.638;2022-10-16T15:56:37;9.25;;;4.60;;
64033;SDS011;50280;49.864;8.638;2022-10-16T15:59:09;10.05;;;5.43;;